Terminal Aerodrome Forecast
Issued by NWS Columbia, SC

Home | Current Version | Previous Version | Text Only | Print | Product List | Glossary On
Versions: 1 2 3 4 5 6 7 8 9 10 11 12 13 14 15 16 17 18 19 20 21 22 23 24 25 26 27 28 29 30 31 32 33 34 35 36 37 38 39 40 41 42 43 44 45 46 47
000
FTUS42 KCAE 021317 AAA
TAFCAE
TAF AMD
KCAE 021317Z 0213/0312 VRB04KT P6SM SCT020
      TEMPO 0214/0216 BKN020
     FM021700 17006KT P6SM VCTS BKN035CB
     FM030200 VRB04KT P6SM SCT050 BKN080
     FM030900 VRB03KT 5SM BR BKN250=

USA.gov is the U.S. government's official web portal to all federal, state and local government web resources and services.